createdAt,value
2019-02-25T00:00:28.952Z,1034.60
2019-02-25T00:01:28.994Z,1034.62
2019-02-25T00:02:28.932Z,1034.63
2019-02-25T00:03:29.033Z,1034.63
2019-02-25T00:04:28.933Z,1034.65
2019-02-25T00:05:28.920Z,1034.67
2019-02-25T00:06:28.889Z,1034.63
2019-02-25T00:07:28.935Z,1034.64
2019-02-25T00:08:28.880Z,1034.60
2019-02-25T00:09:28.947Z,1034.59
2019-02-25T00:10:28.849Z,1034.56
2019-02-25T00:11:28.853Z,1034.65
2019-02-25T00:12:28.823Z,1034.59
2019-02-25T00:13:30.946Z,1034.60
2019-02-25T00:14:28.816Z,1034.53
2019-02-25T00:15:28.884Z,1034.52
2019-02-25T00:16:28.789Z,1034.59
2019-02-25T00:17:28.796Z,1034.57
2019-02-25T00:18:28.773Z,1034.55
2019-02-25T00:19:28.806Z,1034.51
2019-02-25T00:20:28.741Z,1034.50
2019-02-25T00:21:29.745Z,1034.48
2019-02-25T00:22:28.723Z,1034.43
2019-02-25T00:23:28.762Z,1034.39
2019-02-25T00:24:28.696Z,1034.42
2019-02-25T00:25:28.757Z,1034.42
2019-02-25T00:26:28.679Z,1034.36
2019-02-25T00:27:28.759Z,1034.36
2019-02-25T00:28:28.668Z,1034.44
2019-02-25T00:29:28.673Z,1034.42
2019-02-25T00:30:28.633Z,1034.44
2019-02-25T00:31:28.685Z,1034.40
2019-02-25T00:32:28.610Z,1034.41
2019-02-25T00:33:28.725Z,1034.38
2019-02-25T00:34:28.593Z,1034.37
2019-02-25T00:35:28.611Z,1034.37
2019-02-25T00:36:28.567Z,1034.38
2019-02-25T00:37:28.628Z,1034.34
2019-02-25T00:38:28.567Z,1034.35
2019-02-25T00:39:28.639Z,1034.31
2019-02-25T00:40:28.529Z,1034.33
2019-02-25T00:41:28.551Z,1034.34
2019-02-25T00:42:28.506Z,1034.33
2019-02-25T00:43:28.591Z,1034.33
2019-02-25T00:44:28.484Z,1034.33
2019-02-25T00:45:28.577Z,1034.31
2019-02-25T00:46:28.465Z,1034.29
2019-02-25T00:47:28.495Z,1034.31
2019-02-25T00:48:28.454Z,1034.31
2019-02-25T00:49:28.510Z,1034.34
2019-02-25T00:50:28.419Z,1034.30
2019-02-25T00:51:28.521Z,1034.32
2019-02-25T00:52:28.400Z,1034.36
2019-02-25T00:53:28.453Z,1034.31
2019-02-25T00:54:28.377Z,1034.35
2019-02-25T00:55:28.452Z,1034.29
2019-02-25T00:56:28.356Z,1034.39
2019-02-25T00:57:28.455Z,1034.39
2019-02-25T00:58:28.356Z,1034.41
2019-02-25T00:59:28.365Z,1034.36
2019-02-25T01:00:28.339Z,1034.39
2019-02-25T01:01:37.288Z,1034.40
2019-02-25T01:02:28.294Z,1034.41
2019-02-25T01:03:28.316Z,1034.48
2019-02-25T01:04:28.271Z,1034.43
2019-02-25T01:05:36.802Z,1034.45
2019-02-25T01:06:28.253Z,1034.50
2019-02-25T01:07:29.340Z,1034.46
2019-02-25T01:08:28.248Z,1034.47
2019-02-25T01:09:29.252Z,1034.40
2019-02-25T01:10:28.208Z,1034.41
2019-02-25T01:11:28.241Z,1034.42
2019-02-25T01:12:28.187Z,1034.36
2019-02-25T01:13:28.282Z,1034.34
2019-02-25T01:14:28.171Z,1034.34
2019-02-25T01:15:28.270Z,1034.31
2019-02-25T01:16:28.144Z,1034.36
2019-02-25T01:17:28.180Z,1034.31
2019-02-25T01:18:28.138Z,1034.27
2019-02-25T01:19:28.194Z,1034.29
2019-02-25T01:20:28.108Z,1034.24
2019-02-25T01:21:28.108Z,1034.21
2019-02-25T01:22:28.080Z,1034.21
2019-02-25T01:23:28.147Z,1034.17
2019-02-25T01:24:28.062Z,1034.16
2019-02-25T01:25:28.134Z,1034.20
2019-02-25T01:26:28.048Z,1034.22
2019-02-25T01:27:28.046Z,1034.21
2019-02-25T01:28:28.035Z,1034.20
2019-02-25T01:29:28.058Z,1034.23
2019-02-25T01:30:27.996Z,1034.20
2019-02-25T01:31:28.072Z,1034.23
2019-02-25T01:32:28.022Z,1034.17
2019-02-25T01:33:28.010Z,1034.18
2019-02-25T01:34:27.954Z,1034.13
2019-02-25T01:35:27.997Z,1034.12
2019-02-25T01:36:28.226Z,1034.10
2019-02-25T01:37:28.012Z,1034.15
2019-02-25T01:38:27.914Z,1034.15
2019-02-25T01:39:27.951Z,1034.10
2019-02-25T01:40:27.894Z,1034.13
2019-02-25T01:41:27.937Z,1034.15
2019-02-25T01:42:27.872Z,1034.09
2019-02-25T01:43:27.953Z,1034.14
2019-02-25T01:44:27.863Z,1034.10
2019-02-25T01:45:27.861Z,1034.06
2019-02-25T01:46:27.831Z,1034.12
2019-02-25T01:47:27.874Z,1034.12
2019-02-25T01:48:27.806Z,1034.22
2019-02-25T01:49:28.836Z,1034.17
2019-02-25T01:50:27.792Z,1034.23
2019-02-25T01:51:35.786Z,1034.16
2019-02-25T01:52:27.767Z,1034.15
2019-02-25T01:53:27.815Z,1034.18
2019-02-25T01:54:27.764Z,1034.18
2019-02-25T01:55:28.748Z,1034.23
2019-02-25T01:56:27.724Z,1034.22
2019-02-25T01:57:27.739Z,1034.21
2019-02-25T01:58:27.704Z,1034.21
2019-02-25T01:59:27.778Z,1034.19
2019-02-25T02:00:27.681Z,1034.15
2019-02-25T02:01:27.770Z,1034.16
2019-02-25T02:02:27.662Z,1034.18
2019-02-25T02:03:27.680Z,1034.17
2019-02-25T02:04:27.657Z,1034.17
2019-02-25T02:05:27.690Z,1034.21
2019-02-25T02:06:27.616Z,1034.15
2019-02-25T02:07:27.708Z,1034.07
2019-02-25T02:08:27.603Z,1034.09
2019-02-25T02:09:27.653Z,1034.06
2019-02-25T02:10:27.579Z,1034.04
2019-02-25T02:11:27.633Z,1034.04
2019-02-25T02:12:27.554Z,1034.05
2019-02-25T02:13:27.647Z,1034.00
2019-02-25T02:14:27.551Z,1034.04
2019-02-25T02:15:27.559Z,1034.02
2019-02-25T02:16:27.514Z,1034.08
2019-02-25T02:17:27.571Z,1034.04
2019-02-25T02:18:27.493Z,1034.04
2019-02-25T02:19:27.510Z,1033.98
2019-02-25T02:20:27.468Z,1034.02
2019-02-25T02:21:27.496Z,1033.99
2019-02-25T02:22:27.451Z,1033.96
2019-02-25T02:23:27.513Z,1034.00
2019-02-25T02:24:27.447Z,1033.98
2019-02-25T02:25:27.527Z,1034.01
2019-02-25T02:26:27.408Z,1033.98
2019-02-25T02:27:27.437Z,1033.97
2019-02-25T02:28:27.396Z,1034.09
2019-02-25T02:29:27.482Z,1034.08
2019-02-25T02:30:27.371Z,1034.09
2019-02-25T02:31:27.465Z,1034.08
2019-02-25T02:32:27.346Z,1034.07
2019-02-25T02:33:27.379Z,1034.21
2019-02-25T02:34:27.338Z,1034.14
2019-02-25T02:35:27.391Z,1034.11
2019-02-25T02:36:27.306Z,1034.07
2019-02-25T02:37:27.404Z,1034.07
2019-02-25T02:38:27.280Z,1034.07
2019-02-25T02:39:33.853Z,1034.08
2019-02-25T02:40:27.263Z,1034.05
2019-02-25T02:41:29.273Z,1034.07
2019-02-25T02:42:27.237Z,1034.05
2019-02-25T02:43:28.263Z,1034.12
2019-02-25T02:44:27.233Z,1034.14
2019-02-25T02:45:27.254Z,1034.06
2019-02-25T02:46:27.199Z,1034.08
2019-02-25T02:47:27.267Z,1034.09
2019-02-25T02:48:27.173Z,1034.07
2019-02-25T02:49:27.207Z,1033.99
2019-02-25T02:50:27.152Z,1034.04
2019-02-25T02:51:27.194Z,1034.02
2019-02-25T02:52:27.135Z,1033.97
2019-02-25T02:53:27.204Z,1033.94
2019-02-25T02:54:27.124Z,1033.93
2019-02-25T02:55:27.116Z,1033.90
2019-02-25T02:56:27.092Z,1033.87
2019-02-25T02:57:27.131Z,1033.91
2019-02-25T02:58:27.069Z,1033.93
2019-02-25T02:59:27.180Z,1033.94
2019-02-25T03:00:27.045Z,1033.88
2019-02-25T03:01:27.055Z,1033.92
2019-02-25T03:02:27.028Z,1033.95
2019-02-25T03:03:27.069Z,1033.90
2019-02-25T03:04:27.021Z,1033.94
2019-02-25T03:05:27.081Z,1033.95
2019-02-25T03:06:26.982Z,1033.93
2019-02-25T03:07:26.992Z,1033.99
2019-02-25T03:08:26.963Z,1033.87
2019-02-25T03:09:27.065Z,1033.86
2019-02-25T03:10:26.944Z,1033.93
2019-02-25T03:11:27.021Z,1033.92
2019-02-25T03:12:26.921Z,1033.86
2019-02-25T03:13:26.931Z,1033.92
2019-02-25T03:14:26.913Z,1033.88
2019-02-25T03:15:26.945Z,1034.00
2019-02-25T03:16:26.880Z,1033.95
2019-02-25T03:17:26.958Z,1033.97
2019-02-25T03:18:26.862Z,1033.98
2019-02-25T03:19:28.151Z,1033.94
2019-02-25T03:20:26.841Z,1033.95
2019-02-25T03:21:26.884Z,1034.01
2019-02-25T03:22:26.818Z,1033.96
2019-02-25T03:23:26.897Z,1034.02
2019-02-25T03:24:26.799Z,1033.97
2019-02-25T03:25:26.838Z,1034.05
2019-02-25T03:26:26.775Z,1034.03
2019-02-25T03:27:26.822Z,1034.03
2019-02-25T03:28:26.752Z,1034.02
2019-02-25T03:29:26.835Z,1034.01
2019-02-25T03:30:26.755Z,1034.00
2019-02-25T03:31:26.751Z,1034.02
2019-02-25T03:32:26.719Z,1033.97
2019-02-25T03:33:26.762Z,1034.03
2019-02-25T03:34:26.688Z,1034.00
2019-02-25T03:35:26.799Z,1033.97
2019-02-25T03:36:26.667Z,1033.99
2019-02-25T03:37:26.684Z,1034.07
2019-02-25T03:38:26.646Z,1034.00
2019-02-25T03:39:26.697Z,1033.98
2019-02-25T03:40:26.642Z,1034.04
2019-02-25T03:41:26.711Z,1034.03
2019-02-25T03:42:26.609Z,1033.99
2019-02-25T03:43:26.622Z,1033.97
2019-02-25T03:44:26.583Z,1033.94
2019-02-25T03:45:26.661Z,1033.97
2019-02-25T03:46:26.563Z,1034.00
2019-02-25T03:47:26.649Z,1033.94
2019-02-25T03:48:26.542Z,1034.00
2019-02-25T03:49:26.561Z,1034.03
2019-02-25T03:50:26.547Z,1033.98
2019-02-25T03:51:26.574Z,1034.03
2019-02-25T03:52:26.500Z,1034.01
2019-02-25T03:53:26.591Z,1034.03
2019-02-25T03:54:26.478Z,1034.03
2019-02-25T03:55:26.527Z,1034.02
2019-02-25T03:56:26.459Z,1034.07
2019-02-25T03:57:26.515Z,1034.12
2019-02-25T03:58:26.435Z,1034.10
2019-02-25T03:59:26.531Z,1034.18
2019-02-25T04:00:26.435Z,1034.18
2019-02-25T04:01:26.440Z,1034.15
2019-02-25T04:02:26.392Z,1034.16
2019-02-25T04:03:26.454Z,1034.17
2019-02-25T04:04:26.371Z,1034.16
2019-02-25T04:05:26.390Z,1034.19
2019-02-25T04:06:26.353Z,1034.22
2019-02-25T04:07:26.377Z,1034.20
2019-02-25T04:08:26.329Z,1034.24
2019-02-25T04:09:26.391Z,1034.19
2019-02-25T04:10:26.323Z,1034.22
2019-02-25T04:11:26.405Z,1034.28
2019-02-25T04:12:26.292Z,1034.30
2019-02-25T04:13:33.281Z,1034.29
2019-02-25T04:14:26.267Z,1034.32
2019-02-25T04:15:28.302Z,1034.35
2019-02-25T04:16:26.249Z,1034.33
2019-02-25T04:17:27.267Z,1034.29
2019-02-25T04:18:26.230Z,1034.34
2019-02-25T04:19:26.257Z,1034.33
2019-02-25T04:20:26.217Z,1034.32
2019-02-25T04:21:26.268Z,1034.34
2019-02-25T04:22:26.182Z,1034.25
2019-02-25T04:23:26.284Z,1034.37
2019-02-25T04:24:26.167Z,1034.32
2019-02-25T04:25:26.221Z,1034.30
2019-02-25T04:26:26.141Z,1034.26
2019-02-25T04:27:26.213Z,1034.21
2019-02-25T04:28:26.122Z,1034.25
2019-02-25T04:29:26.223Z,1034.22
2019-02-25T04:30:26.114Z,1034.23
2019-02-25T04:31:26.133Z,1034.17
2019-02-25T04:32:26.098Z,1034.20
2019-02-25T04:33:26.147Z,1034.17
2019-02-25T04:34:26.060Z,1034.18
2019-02-25T04:35:26.087Z,1034.18
2019-02-25T04:36:26.040Z,1034.14
2019-02-25T04:37:26.074Z,1034.19
2019-02-25T04:38:26.013Z,1034.17
2019-02-25T04:39:26.087Z,1034.18
2019-02-25T04:40:26.008Z,1034.15
2019-02-25T04:41:25.998Z,1034.16
2019-02-25T04:42:25.973Z,1034.16
2019-02-25T04:43:26.011Z,1034.17
2019-02-25T04:44:25.954Z,1034.18
2019-02-25T04:45:26.052Z,1034.17
2019-02-25T04:46:25.930Z,1034.15
2019-02-25T04:47:25.938Z,1034.13
2019-02-25T04:48:25.910Z,1034.16
2019-02-25T04:49:25.949Z,1034.13
2019-02-25T04:50:25.904Z,1034.20
2019-02-25T04:51:25.963Z,1034.19
2019-02-25T04:52:25.866Z,1034.14
2019-02-25T04:53:25.874Z,1034.18
2019-02-25T04:54:25.844Z,1034.23
2019-02-25T04:55:25.914Z,1034.24
2019-02-25T04:56:25.825Z,1034.22
2019-02-25T04:57:25.901Z,1034.23
2019-02-25T04:58:25.803Z,1034.22
2019-02-25T04:59:32.777Z,1034.21
2019-02-25T05:00:25.824Z,1034.19
2019-02-25T05:01:40.780Z,1034.15
2019-02-25T05:02:25.760Z,1034.10
2019-02-25T05:03:48.782Z,1034.06
2019-02-25T05:04:25.747Z,1034.06
2019-02-25T05:05:25.754Z,1034.02
2019-02-25T05:06:25.735Z,1034.04
2019-02-25T05:07:25.766Z,1034.06
2019-02-25T05:08:25.702Z,1034.01
2019-02-25T05:09:25.779Z,1034.01
2019-02-25T05:10:25.676Z,1034.05
2019-02-25T05:11:25.808Z,1034.05
2019-02-25T05:12:25.656Z,1034.02
2019-02-25T05:13:25.705Z,1034.07
2019-02-25T05:14:25.643Z,1034.07
2019-02-25T05:15:25.719Z,1034.08
2019-02-25T05:16:25.626Z,1034.12
2019-02-25T05:17:25.633Z,1034.13
2019-02-25T05:18:25.592Z,1034.07
2019-02-25T05:19:25.645Z,1033.98
2019-02-25T05:20:25.574Z,1034.02
2019-02-25T05:21:25.705Z,1033.95
2019-02-25T05:22:25.550Z,1033.98
2019-02-25T05:23:25.569Z,1033.97
2019-02-25T05:24:25.532Z,1033.96
2019-02-25T05:25:25.583Z,1033.98
2019-02-25T05:26:25.525Z,1033.98
2019-02-25T05:27:25.596Z,1034.00
2019-02-25T05:28:25.488Z,1033.96
2019-02-25T05:29:25.506Z,1033.98
2019-02-25T05:30:25.467Z,1033.97
2019-02-25T05:31:25.551Z,1033.99
2019-02-25T05:32:25.448Z,1034.00
2019-02-25T05:33:25.534Z,1034.02
2019-02-25T05:34:25.458Z,1034.01
2019-02-25T05:35:25.446Z,1033.98
2019-02-25T05:36:25.418Z,1034.00
2019-02-25T05:37:25.463Z,1033.96
2019-02-25T05:38:25.385Z,1033.95
2019-02-25T05:39:25.474Z,1033.92
2019-02-25T05:40:25.365Z,1033.98
2019-02-25T05:41:25.419Z,1033.96
2019-02-25T05:42:25.340Z,1033.95
2019-02-25T05:43:25.399Z,1033.93
2019-02-25T05:44:25.319Z,1033.97
2019-02-25T05:45:25.412Z,1033.97
2019-02-25T05:46:25.318Z,1033.92
2019-02-25T05:47:40.274Z,1033.92
2019-02-25T05:48:25.277Z,1033.98
2019-02-25T05:49:48.378Z,1033.94
2019-02-25T05:50:25.262Z,1033.93
2019-02-25T05:51:25.275Z,1033.95
2019-02-25T05:52:25.234Z,1033.91
2019-02-25T05:53:25.262Z,1033.90
2019-02-25T05:54:25.219Z,1033.89
2019-02-25T05:55:27.237Z,1033.89
2019-02-25T05:56:25.211Z,1033.89
2019-02-25T05:57:26.213Z,1033.87
2019-02-25T05:58:25.173Z,1033.83
2019-02-25T05:59:25.204Z,1033.91
2019-02-25T06:00:25.156Z,1033.87
2019-02-25T06:01:25.241Z,1033.86
2019-02-25T06:02:25.130Z,1033.92
2019-02-25T06:03:25.229Z,1033.87
2019-02-25T06:04:25.108Z,1033.86
2019-02-25T06:05:25.140Z,1033.93
2019-02-25T06:06:25.104Z,1033.90
2019-02-25T06:07:25.153Z,1033.89
2019-02-25T06:08:25.076Z,1033.87
2019-02-25T06:09:25.195Z,1033.88
2019-02-25T06:10:25.055Z,1033.88
2019-02-25T06:11:25.106Z,1033.89
2019-02-25T06:12:25.024Z,1033.90
2019-02-25T06:13:25.092Z,1033.85
2019-02-25T06:14:25.004Z,1033.89
2019-02-25T06:15:25.107Z,1033.88
2019-02-25T06:16:24.997Z,1033.82
2019-02-25T06:17:25.018Z,1033.83
2019-02-25T06:18:24.962Z,1033.83
2019-02-25T06:19:25.046Z,1033.77
2019-02-25T06:20:24.942Z,1033.77
2019-02-25T06:21:24.974Z,1033.77
2019-02-25T06:22:24.923Z,1033.82
2019-02-25T06:23:24.956Z,1033.87
2019-02-25T06:24:24.899Z,1033.93
2019-02-25T06:25:24.976Z,1033.94
2019-02-25T06:26:24.889Z,1034.01
2019-02-25T06:27:30.712Z,1034.03
2019-02-25T06:28:25.858Z,1034.07
2019-02-25T06:29:24.902Z,1034.07
2019-02-25T06:30:24.835Z,1034.08
2019-02-25T06:31:24.937Z,1034.04
2019-02-25T06:32:24.814Z,1034.10
2019-02-25T06:33:24.823Z,1034.05
2019-02-25T06:34:24.801Z,1034.02
2019-02-25T06:35:26.883Z,1034.06
2019-02-25T06:36:24.786Z,1034.08
2019-02-25T06:37:24.856Z,1034.08
2019-02-25T06:38:24.755Z,1034.12
2019-02-25T06:39:24.760Z,1034.14
2019-02-25T06:40:24.740Z,1034.15
2019-02-25T06:41:27.770Z,1034.15
2019-02-25T06:42:24.712Z,1034.20
2019-02-25T06:43:26.743Z,1034.22
2019-02-25T06:44:24.688Z,1034.23
2019-02-25T06:45:24.706Z,1034.22
2019-02-25T06:46:24.681Z,1034.20
2019-02-25T06:47:24.712Z,1034.19
2019-02-25T06:48:24.647Z,1034.20
2019-02-25T06:49:24.729Z,1034.23
2019-02-25T06:50:24.627Z,1034.20
2019-02-25T06:51:24.663Z,1034.21
2019-02-25T06:52:24.614Z,1034.28
2019-02-25T06:53:24.653Z,1034.26
2019-02-25T06:54:24.582Z,1034.28
2019-02-25T06:55:24.664Z,1034.34
2019-02-25T06:56:24.571Z,1034.35
2019-02-25T06:57:24.601Z,1034.37
2019-02-25T06:58:24.552Z,1034.35
2019-02-25T06:59:24.589Z,1034.35
2019-02-25T07:00:24.521Z,1034.33
2019-02-25T07:01:24.603Z,1034.36
2019-02-25T07:02:24.513Z,1034.33
2019-02-25T07:03:24.595Z,1034.36
2019-02-25T07:04:24.477Z,1034.32
2019-02-25T07:05:24.527Z,1034.29
2019-02-25T07:06:24.453Z,1034.32
2019-02-25T07:07:24.570Z,1034.39
2019-02-25T07:08:24.432Z,1034.36
2019-02-25T07:09:24.453Z,1034.35
2019-02-25T07:10:24.411Z,1034.42
2019-02-25T07:11:24.466Z,1034.45
2019-02-25T07:12:24.405Z,1034.49
2019-02-25T07:13:24.481Z,1034.52
2019-02-25T07:14:24.370Z,1034.52
2019-02-25T07:15:24.391Z,1034.52
2019-02-25T07:16:24.348Z,1034.53
2019-02-25T07:17:24.433Z,1034.54
2019-02-25T07:18:24.324Z,1034.57
2019-02-25T07:19:24.420Z,1034.55
2019-02-25T07:20:24.303Z,1034.59
2019-02-25T07:21:24.329Z,1034.53
2019-02-25T07:22:24.304Z,1034.55
2019-02-25T07:23:26.289Z,1034.59
2019-02-25T07:24:24.261Z,1034.58
2019-02-25T07:25:26.303Z,1034.66
2019-02-25T07:26:24.240Z,1034.65
2019-02-25T07:27:31.261Z,1034.68
2019-02-25T07:28:24.218Z,1034.73
2019-02-25T07:29:26.228Z,1034.75
2019-02-25T07:30:24.196Z,1034.77
2019-02-25T07:31:25.217Z,1034.79
2019-02-25T07:32:24.190Z,1034.80
2019-02-25T07:33:24.208Z,1034.80
2019-02-25T07:34:24.150Z,1034.77
2019-02-25T07:35:25.830Z,1034.84
2019-02-25T07:36:24.131Z,1034.81
2019-02-25T07:37:24.159Z,1034.81
2019-02-25T07:38:24.106Z,1034.87
2019-02-25T07:39:24.147Z,1034.77
2019-02-25T07:40:24.089Z,1034.83
2019-02-25T07:41:24.160Z,1034.85
2019-02-25T07:42:24.077Z,1034.80
2019-02-25T07:43:24.076Z,1034.85
2019-02-25T07:44:24.045Z,1034.82
2019-02-25T07:45:24.086Z,1034.81
2019-02-25T07:46:24.018Z,1034.83
2019-02-25T07:47:24.125Z,1034.82
2019-02-25T07:48:23.996Z,1034.80
2019-02-25T07:49:24.011Z,1034.81
2019-02-25T07:50:23.979Z,1034.77
2019-02-25T07:51:24.023Z,1034.81
2019-02-25T07:52:23.980Z,1034.83
2019-02-25T07:53:24.041Z,1034.84
2019-02-25T07:54:23.942Z,1034.81
2019-02-25T07:55:23.949Z,1034.80
2019-02-25T07:56:23.908Z,1034.83
2019-02-25T07:57:23.963Z,1034.77
2019-02-25T07:58:23.900Z,1034.82
2019-02-25T07:59:23.976Z,1034.88
2019-02-25T08:00:23.865Z,1034.87
2019-02-25T08:01:23.887Z,1034.89
2019-02-25T08:02:23.841Z,1034.91
2019-02-25T08:03:23.931Z,1034.93
2019-02-25T08:04:23.818Z,1034.86
2019-02-25T08:05:23.915Z,1034.88
2019-02-25T08:06:23.798Z,1034.84
2019-02-25T08:07:23.828Z,1034.87
2019-02-25T08:08:23.804Z,1034.91
2019-02-25T08:09:25.788Z,1034.93
2019-02-25T08:10:23.756Z,1034.92
2019-02-25T08:11:32.765Z,1034.98
2019-02-25T08:12:23.738Z,1034.98
2019-02-25T08:13:23.792Z,1034.95
2019-02-25T08:14:23.710Z,1034.96
2019-02-25T08:15:23.780Z,1034.94
2019-02-25T08:16:23.703Z,1035.04
2019-02-25T08:17:23.793Z,1035.01
2019-02-25T08:18:23.681Z,1035.04
2019-02-25T08:19:23.710Z,1035.09
2019-02-25T08:20:23.642Z,1035.12
2019-02-25T08:21:23.719Z,1035.14
2019-02-25T08:22:23.621Z,1035.12
2019-02-25T08:23:23.661Z,1035.13
2019-02-25T08:24:30.294Z,1035.12
2019-02-25T08:25:24.669Z,1035.13
2019-02-25T08:26:23.575Z,1035.14
2019-02-25T08:27:23.658Z,1035.10
2019-02-25T08:28:23.574Z,1035.13
2019-02-25T08:29:23.672Z,1035.07
2019-02-25T08:30:23.549Z,1035.12
2019-02-25T08:31:23.583Z,1035.07
2019-02-25T08:32:23.510Z,1035.12
2019-02-25T08:33:23.624Z,1035.16
2019-02-25T08:34:23.490Z,1035.14
2019-02-25T08:35:23.508Z,1035.10
2019-02-25T08:36:23.483Z,1035.12
2019-02-25T08:37:23.523Z,1035.16
2019-02-25T08:38:23.462Z,1035.16
2019-02-25T08:39:24.636Z,1035.07
2019-02-25T08:40:23.427Z,1035.10
2019-02-25T08:41:23.444Z,1035.09
2019-02-25T08:42:23.407Z,1035.08
2019-02-25T08:43:23.488Z,1035.05
2019-02-25T08:44:23.381Z,1035.06
2019-02-25T08:45:23.473Z,1035.08
2019-02-25T08:46:23.358Z,1035.05
2019-02-25T08:47:23.384Z,1035.11
2019-02-25T08:48:23.336Z,1035.13
2019-02-25T08:49:23.428Z,1035.12
2019-02-25T08:50:23.314Z,1035.12
2019-02-25T08:51:23.414Z,1035.18
2019-02-25T08:52:23.294Z,1035.21
2019-02-25T08:53:24.348Z,1035.15
2019-02-25T08:54:23.289Z,1035.25
2019-02-25T08:55:25.385Z,1035.20
2019-02-25T08:56:23.251Z,1035.27
2019-02-25T08:58:23.225Z,1035.25
2019-02-25T08:59:23.292Z,1035.27
2019-02-25T09:00:23.217Z,1035.27
2019-02-25T09:01:23.276Z,1035.25
2019-02-25T09:02:23.187Z,1035.29
2019-02-25T09:03:23.186Z,1035.34
2019-02-25T09:04:23.180Z,1035.32
2019-02-25T09:05:23.205Z,1035.27
2019-02-25T09:06:23.138Z,1035.24
2019-02-25T09:07:23.214Z,1035.22
2019-02-25T09:08:23.117Z,1035.26
2019-02-25T09:09:23.154Z,1035.19
2019-02-25T09:10:23.096Z,1035.23
2019-02-25T09:11:23.142Z,1035.19
2019-02-25T09:12:23.076Z,1035.17
2019-02-25T09:13:23.904Z,1035.16
2019-02-25T09:14:23.075Z,1035.18
2019-02-25T09:15:23.065Z,1035.22
2019-02-25T09:16:23.032Z,1035.22
2019-02-25T09:17:23.083Z,1035.24
2019-02-25T09:18:23.296Z,1035.24
2019-02-25T09:19:23.126Z,1035.22
2019-02-25T09:20:22.990Z,1035.22
2019-02-25T09:21:31.423Z,1035.22
2019-02-25T09:22:23.965Z,1035.24
2019-02-25T09:23:23.021Z,1035.22
2019-02-25T09:24:22.961Z,1035.25
2019-02-25T09:25:23.033Z,1035.24
2019-02-25T09:26:22.924Z,1035.28
2019-02-25T09:27:22.942Z,1035.29
2019-02-25T09:28:22.907Z,1035.32
2019-02-25T09:29:22.984Z,1035.31
2019-02-25T09:30:22.878Z,1035.25
2019-02-25T09:31:22.977Z,1035.29
2019-02-25T09:32:22.857Z,1035.35
2019-02-25T09:33:22.880Z,1035.36
2019-02-25T09:34:22.844Z,1035.32
2019-02-25T09:35:22.919Z,1035.31
2019-02-25T09:36:22.815Z,1035.31
2019-02-25T09:37:22.908Z,1035.37
2019-02-25T09:38:23.631Z,1035.38
2019-02-25T09:39:29.784Z,1035.45
2019-02-25T09:40:22.786Z,1035.41
2019-02-25T09:41:30.002Z,1035.41
2019-02-25T09:42:23.752Z,1035.30
2019-02-25T09:43:23.779Z,1035.39
2019-02-25T09:44:22.729Z,1035.32
2019-02-25T09:45:22.788Z,1035.33
2019-02-25T09:46:22.706Z,1035.34
2019-02-25T09:47:22.772Z,1035.33
2019-02-25T09:48:22.686Z,1035.37
2019-02-25T09:49:22.787Z,1035.44
2019-02-25T09:50:22.683Z,1035.43
2019-02-25T09:51:22.700Z,1035.40
2019-02-25T09:52:22.643Z,1035.38
2019-02-25T09:53:22.710Z,1035.41
2019-02-25T09:54:22.620Z,1035.42
2019-02-25T09:55:23.625Z,1035.42
2019-02-25T09:56:22.602Z,1035.32
2019-02-25T09:57:22.634Z,1035.31
2019-02-25T09:58:22.580Z,1035.26
2019-02-25T09:59:22.648Z,1035.29
2019-02-25T10:00:22.572Z,1035.25
2019-02-25T10:01:22.560Z,1035.23
2019-02-25T10:02:24.674Z,1035.24
2019-02-25T10:03:22.596Z,1035.29
2019-02-25T10:04:22.515Z,1035.34
2019-02-25T10:05:22.617Z,1035.33
2019-02-25T10:06:22.495Z,1035.34
2019-02-25T10:07:22.502Z,1035.32
2019-02-25T10:08:22.471Z,1035.31
2019-02-25T10:09:29.618Z,1035.28
2019-02-25T10:10:23.462Z,1035.26
2019-02-25T10:11:22.526Z,1035.29
2019-02-25T10:12:22.427Z,1035.27
2019-02-25T10:13:22.438Z,1035.28
2019-02-25T10:14:22.414Z,1035.32
2019-02-25T10:15:22.420Z,1035.25
2019-02-25T10:16:22.386Z,1035.21
2019-02-25T10:17:24.053Z,1035.19
2019-02-25T10:18:22.364Z,1035.20
2019-02-25T10:19:22.478Z,1035.19
2019-02-25T10:20:22.365Z,1035.18
2019-02-25T10:21:22.390Z,1035.15
2019-02-25T10:22:22.321Z,1035.20
2019-02-25T10:23:22.314Z,1035.12
2019-02-25T10:24:22.301Z,1035.14
2019-02-25T10:25:25.824Z,1035.11
2019-02-25T10:26:22.279Z,1035.12
2019-02-25T10:27:22.279Z,1035.13
2019-02-25T10:28:22.259Z,1035.12
2019-02-25T10:29:22.255Z,1035.11
2019-02-25T10:30:22.263Z,1035.18
2019-02-25T10:31:22.253Z,1035.16
2019-02-25T10:32:23.644Z,1035.08
2019-02-25T10:33:22.268Z,1035.09
2019-02-25T10:34:23.945Z,1035.09
2019-02-25T10:35:22.281Z,1035.09
2019-02-25T10:36:22.189Z,1035.05
2019-02-25T10:37:22.192Z,1035.01
2019-02-25T10:38:22.154Z,1035.07
2019-02-25T10:39:22.210Z,1035.04
2019-02-25T10:40:24.573Z,1035.05
2019-02-25T10:41:23.268Z,1035.11
2019-02-25T10:42:22.112Z,1035.15
2019-02-25T10:43:26.100Z,1035.16
2019-02-25T10:44:22.093Z,1035.15
2019-02-25T10:45:22.087Z,1035.17
2019-02-25T10:46:22.085Z,1035.20
2019-02-25T10:47:22.158Z,1035.15
2019-02-25T10:48:23.519Z,1035.09
2019-02-25T10:49:22.566Z,1035.08
2019-02-25T10:50:22.028Z,1035.02
2019-02-25T10:51:22.110Z,1035.08
2019-02-25T10:52:22.009Z,1034.95
2019-02-25T10:53:22.184Z,1034.94
2019-02-25T10:54:23.207Z,1034.92
2019-02-25T10:55:22.012Z,1034.85
2019-02-25T10:56:23.314Z,1034.85
2019-02-25T10:57:24.035Z,1034.82
2019-02-25T10:58:21.943Z,1034.84
2019-02-25T10:59:22.036Z,1034.82
2019-02-25T11:00:21.922Z,1034.77
2019-02-25T11:01:22.689Z,1034.78
2019-02-25T11:02:21.906Z,1034.82
2019-02-25T11:03:21.990Z,1034.74
2019-02-25T11:04:23.784Z,1034.79
2019-02-25T11:05:23.354Z,1034.75
2019-02-25T11:06:21.881Z,1034.69
2019-02-25T11:07:21.886Z,1034.66
2019-02-25T11:08:21.844Z,1034.58
2019-02-25T11:09:21.900Z,1034.63
2019-02-25T11:10:22.362Z,1034.56
2019-02-25T11:11:23.214Z,1034.53
2019-02-25T11:12:23.630Z,1034.57
2019-02-25T11:13:29.762Z,1034.51
2019-02-25T11:14:21.787Z,1034.54
2019-02-25T11:15:28.292Z,1034.49
2019-02-25T11:16:21.773Z,1034.52
2019-02-25T11:17:22.430Z,1034.55
2019-02-25T11:18:23.919Z,1034.49
2019-02-25T11:19:22.445Z,1034.49
2019-02-25T11:20:21.724Z,1034.48
2019-02-25T11:21:21.807Z,1034.48
2019-02-25T11:22:21.697Z,1034.50
2019-02-25T11:23:21.793Z,1034.47
2019-02-25T11:24:23.352Z,1034.53
2019-02-25T11:25:23.532Z,1034.52
2019-02-25T11:26:23.615Z,1034.49
2019-02-25T11:27:21.716Z,1034.49
2019-02-25T11:28:25.505Z,1034.50
2019-02-25T11:29:21.730Z,1034.56
2019-02-25T11:30:23.714Z,1034.49
2019-02-25T11:31:24.521Z,1034.51
2019-02-25T11:32:23.623Z,1034.57
2019-02-25T11:33:22.742Z,1034.56
2019-02-25T11:34:21.564Z,1034.53
2019-02-25T11:35:21.567Z,1034.56
2019-02-25T11:36:22.075Z,1034.58
2019-02-25T11:37:22.455Z,1034.51
2019-02-25T11:38:21.525Z,1034.46
2019-02-25T11:39:21.594Z,1034.41
2019-02-25T11:40:21.503Z,1034.37
2019-02-25T11:41:21.531Z,1034.33
2019-02-25T11:42:21.486Z,1034.34
2019-02-25T11:43:21.712Z,1034.28
2019-02-25T11:44:23.553Z,1034.23
2019-02-25T11:45:21.533Z,1034.26
2019-02-25T11:46:21.452Z,1034.22
2019-02-25T11:47:21.447Z,1034.25
2019-02-25T11:48:22.656Z,1034.26
2019-02-25T11:49:21.855Z,1034.28
2019-02-25T11:50:21.399Z,1034.30
2019-02-25T11:51:21.506Z,1034.32
2019-02-25T11:52:21.377Z,1034.33
2019-02-25T11:53:21.382Z,1034.30
2019-02-25T11:54:21.358Z,1034.28
2019-02-25T11:55:22.017Z,1034.34
2019-02-25T11:56:21.336Z,1034.26
2019-02-25T11:57:24.815Z,1034.32
2019-02-25T11:58:21.315Z,1034.34
2019-02-25T11:59:21.322Z,1034.38
2019-02-25T12:00:21.293Z,1034.28
2019-02-25T12:01:28.811Z,1034.27
2019-02-25T12:02:25.669Z,1034.31
2019-02-25T12:03:23.294Z,1034.29
2019-02-25T12:04:21.253Z,1034.32
2019-02-25T12:05:21.260Z,1034.33
2019-02-25T12:06:21.231Z,1034.32